Messwerte Lafayette

Temperatur

Temperatur
°C
1638032400 11.00 11.00 14
1638036000 12.00 12.00 14
1638039600 13.00 13.00 15
1638043200 14.00 14.00 13
1638046800 15.00 15.00 13
1638050400 16.00 16.00 13
1638054000 17.00 17.00 12
1638057600 18.00 18.00 12
1638061200 19.00 19.00 12
1638064800 20.00 20.00 12
1638068400 21.00 21.00 12
1638072000 22.00 22.00 12
1638075600 23.00 23.00 12
1638079200 0.00 0.00 11
1638082800 1.00 1.00 11
1638086400 2.00 2.00 11
1638090000 3.00 3.00 11
1638093600 4.00 4.00 9
1638097200 5.00 5.00 9
1638100800 6.00 6.00 9
1638104400 7.00 7.00 9
1638108000 8.00 8.00
1638111600 9.00 9.00 11
1638115200 10.00 10.00 12

Aktuellste Messwerte

Wettercharakter
Wetter: recht sonnig
Temperatur
13 °C
Feuchtigkeit
70 %
Wind
5 km/hWindrichtung: Ost
Luftdruck
1021 hPa
Messzeit: 28. November 2021, 11.00Datenquelle: METAR

Weitere Messstationen in der Nähe

Messstation Temperatur Entfernung
New Iberia 13 °C 22 km
Patterson Memorial 12 °C 84 km
Baton Rouge 13 °C 88 km
Oakdale 15 °C 90 km
Chenault Airpark 14 °C 111 km
Lake Charles 15 °C 117 km
Fort Polk 12 °C 128 km

Wind

Windrichtung Böen Mittelwind
° km/h km/h
1638032400 11.00 10.00 - 11.00 5
1638036000 12.00 11.00 - 12.00 250° 5
1638039600 13.00 12.00 - 13.00 0
1638043200 14.00 13.00 - 14.00 0
1638046800 15.00 14.00 - 15.00 50° 10
1638050400 16.00 15.00 - 16.00
1638054000 17.00 16.00 - 17.00 0
1638057600 18.00 17.00 - 18.00 300° 5
1638061200 19.00 18.00 - 19.00 0
1638064800 20.00 19.00 - 20.00 40° 5
1638068400 21.00 20.00 - 21.00 0
1638072000 22.00 21.00 - 22.00 0
1638075600 23.00 22.00 - 23.00 320° 5
1638079200 0.00 23.00 - 0.00 290° 10
1638082800 1.00 0.00 - 1.00 0
1638086400 2.00 1.00 - 2.00 10° 5
1638090000 3.00 2.00 - 3.00 40° 5
1638093600 4.00 3.00 - 4.00 30° 10
1638097200 5.00 4.00 - 5.00 30° 10
1638100800 6.00 5.00 - 6.00 70° 10
1638104400 7.00 6.00 - 7.00 0
1638108000 8.00 7.00 - 8.00
1638111600 9.00 8.00 - 9.00 50° 5
1638115200 10.00 9.00 - 10.00 5

Ihre Wetterstation

Fehlt Ihre Wetterstation auf unserem Portal?

Schreiben Sie an network@meteonews.ch

Klima

Wann ist es am wärmsten? Wann regnet es am wenigsten? Unsere Klimadaten geben Auskunft.